Pagrindinis puslapis
METAR-TAF:

METAR-TAF

Oro uostai :

Hobbs, Naujoji Meksika, Jungtinės Amerikos Valstijos

platuma: 32-41N, ilguma: 103-13W, Aukštis: 1115 m

Dabartinis oras

Ataskaita buvo paskelbta 26 minutes, ne 11:35 UTC
Vėjas 5 kt iš Vakarų/Pietvakarių
Temperatūra 4°C
Drėgmė 70%
Slėgis 1018 hPa
Matomumas: 16.1 km
Giedras dangus

METAR: KHOB 301135Z AUTO 25005KT 10SM CLR 04/M01 A3006 RMK AO2

Laikas: 05:01 (12:01 UTC)

Prognozė

Ataskaita buvo paskelbta 41 minutes, ne 11:20 UTC
Prognozė galioja nuo 30 metu 12 UTC su 01 metu 12 UTC
Vėjas 7 kt iš Vakarų/Pietvakarių
Matomumas: 10 km
Su prošvaistėmis ne aukštis 25000 ft
Nuo 01 metu 0000 UTC
Vėjas 7 kt iš Šiaurės
Matomumas: 10 km
Giedras dangus

TAF: KHOB 301120Z 3012/0112 25007KT P6SM BKN250 FM010000 36007KT P6SM SKC

Orai ataskaitas ir orų prognozės (METAR, TAF).

turimą stotys yra geltonos ir raudonos taškus žemėlapyje.

Perkelti pele per norėdami pamatyti stoties vardą.

Tada spustelėkite, norėdami matyti oro stebėjimo ir prognozės.

Norėdami pakeisti žemėlapį: spustelėkite ant žalios mygtukų su juodo kryžiaus žemyn,; žalią mygtuką su brūkšneliu, jei norite nutolinti; arba žalių rodyklių gretimoms žemėlapius.


METAR-TAF: